Detall de PIREP

Printer-friendly versionPDF version

[2012/09/03 10:25:00]
Flight IATA:CT3233
Pilot Number:042
Company ICAO:CAT
Aircraft Type:B738/F
PAX:115
Departing Airport: LEMD
Destination Airport: LEPA
Alternate Airport:LEBL
Online: VATSIM
Route:NANDO UM871 GODOX
Flight Level:F300
No Slew and time accel
No pause
Crash detect
Detect pilot in Cockpit between each 30 and 45 minutes
10:25 Zero fuel Weight: 133180 Lbs, Fuel Weight: 46053 Lbs
10:25 VATSIM:LEMD 031000Z 04013KT 360V080 CAVOK 22/07 Q1022 NOSIG
10:25 VATSIM:LEPA 031000Z 27008KT 230V340 9999 FEW023 FEW026TCU 24/17 Q1017 NOSIG
10:26 VOICE CATALONIAN
10:30 Parking Brakes off
10:42 Take-off
10:42 Take off Weight: 177652 Lbs
10:42 Wind: 048º @ 013 Knots Heading: 002º
10:42 POS N40º 31´ 52´´ W003º 33´ 32´´
10:42 Gear Up: 175 Knots
10:42 Flaps:5 at 175 Knots
10:42 Flaps:4 at 167 Knots
10:42 Flaps:3 at 168 Knots
10:43 Flaps:2 at 197 Knots
10:43 Flaps:1 at 206 Knots
10:44 Flaps:0 at 224 Knots
10:57 Wind:048º@045 Knots Heading: 101º Ground Speed: 413 Knots Altitude 24084 ft
11:07 TOC
11:07 Fuel Weight: 39661 Lb
11:12 Wind:238º@000 Knots Heading: 119º Ground Speed: 466 Knots Altitude 30111 ft
11:23 TOD
11:23 Fuel Weight: 37823 Lb
11:27 Wind:289º@033 Knots Heading: 068º Ground Speed: 443 Knots Altitude 22204 ft
11:30 Flaps:1 at 221 Knots
11:35 Flaps:2 at 237 Knots
11:42 Wind:313º@008 Knots Heading: 231º Ground Speed: 202 Knots Altitude 5062 ft
11:44 Flaps:3 at 180 Knots
11:46 Gear Down: 180 Knots
11:46 Flaps:4 at 181 Knots
11:46 Flaps:5 at 181 Knots
11:47 Flaps:6 at 172 Knots
11:47 Flaps:7 at 169 Knots
11:48 Flaps:8 at 153 Knots
11:49 TouchDown:Rate -470 ft/min Speed: 151 Knots
11:50 VATSIM:LEPA 031030Z 32003KT 9999 FEW023 SCT050 24/16 Q1017 NOSIG
11:50 Land
11:50 Wind:322º@003 Knots
11:50 Heading: 238º
11:50Flight Duration: 01:08
11:50 Landing Weight: 169480 Lbs
11:50 POS N39º 32´ 52´´ E002º 44´ 43´´
11:53 Parking brakes on
11:53 Block to Block Duration: 01:23
11:53 Final Fuel: 35981 Lbls
11:53 Spent Fuel: 10072 Lbls
11:53 Flight Length: 405 NM
11:53 TOD Land Length: 124 NM

Exportar CSV

Powered by Drupal - Modified by Danger4k